METAR Formatted Surface Weather Observation
Issued by NWS

Home | Current Version | Previous Version | Text Only | Print | Product List | Glossary On
Versions: 1 2 3 4 5
000
SAUS46 KSEW 211859
MTRSMP
METAR KSMP 211856Z AUTO VRB04KT 10SM CLR 13/10 A3005 RMK AO2 SLP165
T01330100



USA.gov is the U.S. government's official web portal to all federal, state and local government web resources and services.